createdAt,value
2024-02-20T00:01:00.356Z,101552.00
2024-02-20T00:03:27.584Z,101551.00
2024-02-20T00:05:54.363Z,101547.00
2024-02-20T00:08:21.348Z,101551.00
2024-02-20T00:10:48.227Z,101554.00
2024-02-20T00:13:15.406Z,101551.00
2024-02-20T00:15:42.996Z,101549.00
2024-02-20T00:18:11.418Z,101556.00
2024-02-20T00:20:39.390Z,101549.00
2024-02-20T00:23:06.061Z,101551.00
2024-02-20T00:25:32.659Z,101558.00
2024-02-20T00:27:59.410Z,101555.00
2024-02-20T00:30:26.600Z,101560.00
2024-02-20T00:32:53.466Z,101563.00
2024-02-20T00:35:20.254Z,101561.00
2024-02-20T00:37:47.698Z,101558.00
2024-02-20T00:40:14.670Z,101553.00
2024-02-20T00:42:41.594Z,101556.00
2024-02-20T00:45:08.722Z,101559.00
2024-02-20T00:47:35.809Z,101571.00
2024-02-20T00:50:03.780Z,101558.00
2024-02-20T00:52:32.454Z,101567.00
2024-02-20T00:54:59.410Z,101566.00
2024-02-20T00:57:27.958Z,101561.00
2024-02-20T00:59:56.965Z,101562.00
2024-02-20T01:02:25.967Z,101557.00
2024-02-20T01:04:52.966Z,101565.00
2024-02-20T01:07:20.112Z,101556.00
2024-02-20T01:09:46.827Z,101552.00
2024-02-20T01:12:13.522Z,101560.00
2024-02-20T01:14:42.695Z,101562.00
2024-02-20T01:17:12.251Z,101565.00
2024-02-20T01:19:39.290Z,101559.00
2024-02-20T01:22:09.193Z,101557.00
2024-02-20T01:24:39.055Z,101556.00
2024-02-20T01:27:08.454Z,101550.00
2024-02-20T01:29:35.131Z,101554.00
2024-02-20T01:32:01.859Z,101562.00
2024-02-20T01:34:33.297Z,101552.00
2024-02-20T01:37:00.396Z,101549.00
2024-02-20T01:39:27.516Z,101552.00
2024-02-20T01:41:54.398Z,101550.00
2024-02-20T01:44:22.459Z,101544.00
2024-02-20T01:46:54.058Z,101556.00
2024-02-20T01:49:23.827Z,101549.00
2024-02-20T01:51:51.084Z,101556.00
2024-02-20T01:54:17.794Z,101556.00
2024-02-20T01:56:45.176Z,101549.00
2024-02-20T01:59:15.321Z,101546.00
2024-02-20T02:01:42.070Z,101552.00
2024-02-20T02:04:09.167Z,101553.00
2024-02-20T02:06:39.841Z,101547.00
2024-02-20T02:09:07.066Z,101558.00
2024-02-20T02:11:40.743Z,101542.00
2024-02-20T02:14:08.911Z,101546.00
2024-02-20T02:16:35.912Z,101552.00
2024-02-20T02:19:02.799Z,101551.00
2024-02-20T02:21:30.090Z,101548.00
2024-02-20T02:23:56.816Z,101536.00
2024-02-20T02:26:23.892Z,101538.00
2024-02-20T02:28:57.381Z,101541.00
2024-02-20T02:31:27.253Z,101550.00
2024-02-20T02:33:57.617Z,101545.00
2024-02-20T02:36:26.206Z,101545.00
2024-02-20T02:38:58.011Z,101554.00
2024-02-20T02:41:26.532Z,101565.00
2024-02-20T02:43:55.132Z,101556.00
2024-02-20T02:46:23.543Z,101550.00
2024-02-20T02:48:51.885Z,101551.00
2024-02-20T02:51:18.723Z,101558.00
2024-02-20T02:53:48.796Z,101557.00
2024-02-20T02:56:15.666Z,101552.00
2024-02-20T02:58:42.425Z,101554.00
2024-02-20T03:01:10.949Z,101555.00
2024-02-20T03:03:41.093Z,101548.00
2024-02-20T03:06:10.276Z,101551.00
2024-02-20T03:08:40.171Z,101553.00
2024-02-20T03:11:07.442Z,101563.00
2024-02-20T03:13:37.718Z,101561.00
2024-02-20T03:16:12.668Z,101569.00
2024-02-20T03:18:40.292Z,101566.00
2024-02-20T03:21:10.363Z,101563.00
2024-02-20T03:23:37.003Z,101562.00
2024-02-20T03:26:05.111Z,101574.00
2024-02-20T03:28:32.607Z,101560.00
2024-02-20T03:30:59.569Z,101567.00
2024-02-20T03:33:33.554Z,101565.00
2024-02-20T03:36:00.441Z,101576.00
2024-02-20T03:38:27.464Z,101572.00
2024-02-20T03:40:55.314Z,101575.00
2024-02-20T03:43:22.318Z,101586.00
2024-02-20T03:45:49.653Z,101585.00
2024-02-20T03:48:16.952Z,101588.00
2024-02-20T03:50:44.466Z,101585.00
2024-02-20T03:53:11.466Z,101594.00
2024-02-20T03:55:38.776Z,101590.00
2024-02-20T03:58:06.165Z,101596.00
2024-02-20T04:00:33.091Z,101598.00
2024-02-20T04:03:02.198Z,101592.00
2024-02-20T04:05:28.947Z,101587.00
2024-02-20T04:07:56.016Z,101584.00
2024-02-20T04:10:22.668Z,101593.00
2024-02-20T04:12:49.633Z,101587.00
2024-02-20T04:15:17.625Z,101591.00
2024-02-20T04:17:48.559Z,101593.00
2024-02-20T04:20:15.779Z,101596.00
2024-02-20T04:22:45.545Z,101608.00
2024-02-20T04:25:12.341Z,101592.00
2024-02-20T04:27:42.210Z,101609.00
2024-02-20T04:30:10.878Z,101613.00
2024-02-20T04:32:39.196Z,101608.00
2024-02-20T04:35:07.419Z,101620.00
2024-02-20T04:37:34.650Z,101629.00
2024-02-20T04:40:04.668Z,101621.00
2024-02-20T04:42:31.674Z,101622.00
2024-02-20T04:44:58.546Z,101626.00
2024-02-20T04:47:25.901Z,101632.00
2024-02-20T04:49:56.866Z,101629.00
2024-02-20T04:52:24.745Z,101631.00
2024-02-20T04:54:54.043Z,101634.00
2024-02-20T04:57:20.881Z,101640.00
2024-02-20T04:59:49.184Z,101636.00
2024-02-20T05:02:16.835Z,101635.00
2024-02-20T05:04:44.259Z,101635.00
2024-02-20T05:07:11.627Z,101641.00
2024-02-20T05:09:39.768Z,101645.00
2024-02-20T05:12:07.939Z,101650.00
2024-02-20T05:14:35.039Z,101638.00
2024-02-20T05:17:01.821Z,101642.00
2024-02-20T05:19:28.608Z,101643.00
2024-02-20T05:21:55.551Z,101642.00
2024-02-20T05:24:23.498Z,101644.00
2024-02-20T05:26:50.336Z,101653.00
2024-02-20T05:29:17.252Z,101654.00
2024-02-20T05:31:44.675Z,101659.00
2024-02-20T05:34:11.551Z,101649.00
2024-02-20T05:36:38.204Z,101655.00
2024-02-20T05:39:07.400Z,101657.00
2024-02-20T05:41:34.802Z,101664.00
2024-02-20T05:44:04.249Z,101674.00
2024-02-20T05:46:33.747Z,101669.00
2024-02-20T05:49:04.167Z,101666.00
2024-02-20T05:51:32.662Z,101671.00
2024-02-20T05:53:59.886Z,101669.00
2024-02-20T05:56:26.990Z,101680.00
2024-02-20T05:58:53.944Z,101679.00
2024-02-20T06:01:21.985Z,101690.00
2024-02-20T06:03:48.698Z,101687.00
2024-02-20T06:06:16.426Z,101692.00
2024-02-20T06:08:44.482Z,101702.00
2024-02-20T06:11:15.212Z,101703.00
2024-02-20T06:13:42.817Z,101696.00
2024-02-20T06:16:10.292Z,101697.00
2024-02-20T06:18:39.187Z,101705.00
2024-02-20T06:21:12.568Z,101707.00
2024-02-20T06:23:43.068Z,101716.00
2024-02-20T06:26:12.612Z,101714.00
2024-02-20T06:28:41.616Z,101718.00
2024-02-20T06:31:09.448Z,101716.00
2024-02-20T06:33:36.987Z,101725.00
2024-02-20T06:36:07.049Z,101729.00
2024-02-20T06:38:34.472Z,101732.00
2024-02-20T06:41:02.966Z,101733.00
2024-02-20T06:43:30.285Z,101736.00
2024-02-20T06:45:58.036Z,101728.00
2024-02-20T06:48:25.111Z,101740.00
2024-02-20T06:50:52.837Z,101739.00
2024-02-20T06:53:19.812Z,101735.00
2024-02-20T06:55:49.352Z,101733.00
2024-02-20T06:58:16.267Z,101738.00
2024-02-20T07:00:43.091Z,101740.00
2024-02-20T07:03:11.644Z,101747.00
2024-02-20T07:05:38.606Z,101748.00
2024-02-20T07:08:05.654Z,101757.00
2024-02-20T07:10:32.539Z,101757.00
2024-02-20T07:12:59.873Z,101764.00
2024-02-20T07:15:26.737Z,101757.00
2024-02-20T07:17:53.443Z,101762.00
2024-02-20T07:20:20.487Z,101766.00
2024-02-20T07:22:51.252Z,101774.00
2024-02-20T07:25:23.153Z,101770.00
2024-02-20T07:27:50.004Z,101776.00
2024-02-20T07:30:16.768Z,101782.00
2024-02-20T07:32:44.067Z,101781.00
2024-02-20T07:35:13.134Z,101780.00
2024-02-20T07:37:40.766Z,101778.00
2024-02-20T07:40:10.261Z,101793.00
2024-02-20T07:42:39.777Z,101788.00
2024-02-20T07:45:09.357Z,101792.00
2024-02-20T07:47:37.236Z,101783.00
2024-02-20T07:50:07.881Z,101790.00
2024-02-20T07:52:35.282Z,101789.00
2024-02-20T07:55:02.589Z,101784.00
2024-02-20T07:57:33.013Z,101791.00
2024-02-20T07:59:59.824Z,101796.00
2024-02-20T08:02:26.908Z,101799.00
2024-02-20T08:04:57.305Z,101796.00
2024-02-20T08:07:27.222Z,101798.00
2024-02-20T08:09:56.929Z,101801.00
2024-02-20T08:12:24.878Z,101806.00
2024-02-20T08:14:51.740Z,101798.00
2024-02-20T08:17:22.792Z,101803.00
2024-02-20T08:19:50.489Z,101805.00
2024-02-20T08:22:20.127Z,101807.00
2024-02-20T08:24:57.620Z,101812.00
2024-02-20T08:27:24.906Z,101803.00
2024-02-20T08:29:51.671Z,101808.00
2024-02-20T08:32:18.508Z,101814.00
2024-02-20T08:34:49.772Z,101814.00
2024-02-20T08:37:16.620Z,101818.00
2024-02-20T08:39:45.076Z,101824.00
2024-02-20T08:42:11.784Z,101825.00
2024-02-20T08:44:41.420Z,101824.00
2024-02-20T08:47:09.588Z,101831.00
2024-02-20T08:49:38.274Z,101833.00
2024-02-20T08:52:20.926Z,101831.00
2024-02-20T08:54:55.835Z,101836.00
2024-02-20T08:57:24.202Z,101843.00
2024-02-20T08:59:55.168Z,101844.00
2024-02-20T09:02:22.368Z,101837.00
2024-02-20T09:04:53.243Z,101844.00
2024-02-20T09:07:20.442Z,101849.00
2024-02-20T09:09:47.211Z,101850.00
2024-02-20T09:12:13.870Z,101848.00
2024-02-20T09:14:40.784Z,101850.00
2024-02-20T09:17:07.418Z,101842.00
2024-02-20T09:19:34.376Z,101853.00
2024-02-20T09:22:04.168Z,101852.00
2024-02-20T09:24:31.094Z,101856.00
2024-02-20T09:26:57.776Z,101850.00
2024-02-20T09:29:26.710Z,101848.00
2024-02-20T09:31:55.630Z,101857.00
2024-02-20T09:34:31.395Z,101865.00
2024-02-20T09:36:58.828Z,101878.00
2024-02-20T09:39:26.903Z,101873.00
2024-02-20T09:42:11.286Z,101872.00
2024-02-20T09:44:43.247Z,101886.00
2024-02-20T09:47:10.506Z,101871.00
2024-02-20T09:49:39.716Z,101873.00
2024-02-20T09:52:09.556Z,101873.00
2024-02-20T09:54:40.456Z,101884.00
2024-02-20T09:57:08.165Z,101883.00
2024-02-20T09:59:34.893Z,101888.00
2024-02-20T10:02:09.322Z,101888.00
2024-02-20T10:04:42.239Z,101883.00
2024-02-20T10:07:09.532Z,101884.00
2024-02-20T10:09:36.811Z,101885.00
2024-02-20T10:12:04.724Z,101888.00
2024-02-20T10:14:34.757Z,101888.00
2024-02-20T10:17:04.174Z,101888.00
2024-02-20T10:19:31.090Z,101890.00
2024-02-20T10:22:02.364Z,101889.00
2024-02-20T10:24:37.906Z,101901.00
2024-02-20T10:27:06.521Z,101893.00
2024-02-20T10:29:33.636Z,101892.00
2024-02-20T10:32:00.558Z,101890.00
2024-02-20T10:34:33.424Z,101892.00
2024-02-20T10:37:10.131Z,101885.00
2024-02-20T10:39:43.747Z,101883.00
2024-02-20T10:42:12.297Z,101882.00
2024-02-20T10:44:46.894Z,101878.00
2024-02-20T10:47:13.977Z,101885.00
2024-02-20T10:49:41.431Z,101887.00
2024-02-20T10:52:10.632Z,101893.00
2024-02-20T10:54:46.128Z,101887.00
2024-02-20T10:57:16.183Z,101894.00
2024-02-20T10:59:44.773Z,101881.00
2024-02-20T11:02:12.195Z,101881.00
2024-02-20T11:04:39.277Z,101886.00
2024-02-20T11:07:12.328Z,101881.00
2024-02-20T11:10:05.620Z,101882.00
2024-02-20T11:12:35.218Z,101890.00
2024-02-20T11:15:11.154Z,101889.00
2024-02-20T11:17:38.297Z,101888.00
2024-02-20T11:20:15.835Z,101889.00
2024-02-20T11:22:44.343Z,101894.00
2024-02-20T11:25:17.840Z,101885.00
2024-02-20T11:27:53.420Z,101884.00
2024-02-20T11:30:30.480Z,101896.00
2024-02-20T11:33:03.589Z,101885.00
2024-02-20T11:35:37.857Z,101889.00
2024-02-20T11:38:13.284Z,101887.00
2024-02-20T11:40:40.485Z,101887.00
2024-02-20T11:43:08.261Z,101890.00
2024-02-20T11:45:35.719Z,101886.00
2024-02-20T11:48:10.782Z,101894.00
2024-02-20T11:50:39.605Z,101898.00
2024-02-20T11:53:11.328Z,101895.00
2024-02-20T11:55:42.624Z,101892.00
2024-02-20T11:58:16.334Z,101885.00
2024-02-20T12:00:44.492Z,101886.00
2024-02-20T12:03:23.310Z,101893.00
2024-02-20T12:05:50.379Z,101891.00
2024-02-20T12:08:21.832Z,101903.00
2024-02-20T12:10:52.284Z,101903.00
2024-02-20T12:13:23.429Z,101895.00
2024-02-20T12:15:50.331Z,101895.00
2024-02-20T12:18:29.962Z,101902.00
2024-02-20T12:21:23.733Z,101885.00
2024-02-20T12:23:57.890Z,101890.00
2024-02-20T12:26:26.577Z,101886.00
2024-02-20T12:28:54.404Z,101882.00
2024-02-20T12:31:25.227Z,101878.00
2024-02-20T12:33:55.491Z,101877.00
2024-02-20T12:36:24.969Z,101885.00
2024-02-20T12:38:58.535Z,101870.00
2024-02-20T12:41:25.297Z,101873.00
2024-02-20T12:43:55.310Z,101877.00
2024-02-20T12:46:24.171Z,101879.00
2024-02-20T12:49:00.744Z,101865.00
2024-02-20T12:51:59.807Z,101876.00
2024-02-20T12:54:26.588Z,101876.00
2024-02-20T12:56:53.617Z,101878.00
2024-02-20T12:59:23.647Z,101877.00
2024-02-20T13:01:53.191Z,101879.00
2024-02-20T13:04:25.316Z,101885.00
2024-02-20T13:06:52.720Z,101882.00
2024-02-20T13:09:19.416Z,101881.00
2024-02-20T13:11:47.786Z,101876.00
2024-02-20T13:14:17.804Z,101880.00
2024-02-20T13:16:46.874Z,101870.00
2024-02-20T13:19:17.623Z,101873.00
2024-02-20T13:21:44.703Z,101869.00
2024-02-20T13:24:13.768Z,101882.00
2024-02-20T13:26:40.318Z,101877.00
2024-02-20T13:29:11.286Z,101878.00
2024-02-20T13:31:41.218Z,101875.00
2024-02-20T13:34:11.426Z,101884.00
2024-02-20T13:36:38.960Z,101876.00
2024-02-20T13:39:08.300Z,101882.00
2024-02-20T13:41:41.316Z,101883.00
2024-02-20T13:44:13.205Z,101883.00
2024-02-20T13:46:49.755Z,101885.00
2024-02-20T13:49:29.933Z,101878.00
2024-02-20T13:51:56.831Z,101886.00
2024-02-20T13:54:27.245Z,101882.00
2024-02-20T13:56:54.429Z,101887.00
2024-02-20T13:59:21.237Z,101886.00
2024-02-20T14:01:48.408Z,101874.00
2024-02-20T14:04:15.285Z,101877.00
2024-02-20T14:06:42.270Z,101883.00
2024-02-20T14:09:09.220Z,101889.00
2024-02-20T14:11:39.745Z,101884.00
2024-02-20T14:14:07.383Z,101893.00
2024-02-20T14:16:34.286Z,101898.00
2024-02-20T14:19:01.239Z,101882.00
2024-02-20T14:21:28.462Z,101881.00
2024-02-20T14:24:02.775Z,101885.00
2024-02-20T14:26:33.607Z,101881.00
2024-02-20T14:29:00.314Z,101879.00
2024-02-20T14:31:27.862Z,101888.00
2024-02-20T14:33:54.768Z,101886.00
2024-02-20T14:36:21.426Z,101886.00
2024-02-20T14:38:47.923Z,101888.00
2024-02-20T14:41:15.939Z,101885.00
2024-02-20T14:43:43.384Z,101881.00
2024-02-20T14:46:15.332Z,101879.00
2024-02-20T14:49:02.338Z,101892.00
2024-02-20T14:51:36.265Z,101886.00
2024-02-20T14:54:03.099Z,101888.00
2024-02-20T14:56:32.952Z,101892.00
2024-02-20T14:59:00.226Z,101885.00
2024-02-20T15:01:27.044Z,101884.00
2024-02-20T15:06:52.957Z,101887.00
2024-02-20T15:09:22.847Z,101887.00
2024-02-20T15:11:49.700Z,101884.00
2024-02-20T15:14:16.850Z,101889.00
2024-02-20T15:16:43.576Z,101888.00
2024-02-20T15:19:10.655Z,101882.00
2024-02-20T15:21:43.940Z,101890.00
2024-02-20T15:24:10.686Z,101894.00
2024-02-20T15:26:42.585Z,101894.00
2024-02-20T15:29:11.138Z,101882.00
2024-02-20T15:31:37.927Z,101877.00
2024-02-20T15:34:05.165Z,101878.00
2024-02-20T15:36:35.635Z,101878.00
2024-02-20T15:39:02.421Z,101876.00
2024-02-20T15:41:29.223Z,101879.00
2024-02-20T15:43:57.660Z,101877.00
2024-02-20T15:46:26.735Z,101870.00
2024-02-20T15:48:53.525Z,101873.00
2024-02-20T15:51:20.218Z,101871.00
2024-02-20T15:53:55.767Z,101864.00
2024-02-20T15:57:16.900Z,101875.00
2024-02-20T15:59:43.607Z,101860.00
2024-02-20T16:02:10.473Z,101872.00
2024-02-20T16:04:37.156Z,101865.00
2024-02-20T16:07:03.854Z,101860.00
2024-02-20T16:09:30.385Z,101865.00
2024-02-20T16:11:57.300Z,101878.00
2024-02-20T16:14:24.074Z,101878.00
2024-02-20T16:16:50.942Z,101870.00
2024-02-20T16:19:20.281Z,101874.00
2024-02-20T16:21:49.187Z,101879.00
2024-02-20T16:24:16.998Z,101885.00
2024-02-20T16:26:43.516Z,101888.00
2024-02-20T16:29:10.244Z,101887.00
2024-02-20T16:31:36.840Z,101887.00
2024-02-20T16:34:04.763Z,101888.00
2024-02-20T16:36:31.422Z,101895.00
2024-02-20T16:38:58.112Z,101885.00
2024-02-20T16:41:24.878Z,101898.00
2024-02-20T16:43:53.306Z,101886.00
2024-02-20T16:46:20.370Z,101887.00
2024-02-20T16:48:47.197Z,101890.00
2024-02-20T16:51:13.766Z,101890.00
2024-02-20T16:53:41.912Z,101894.00
2024-02-20T16:56:08.602Z,101885.00
2024-02-20T16:58:35.380Z,101895.00
2024-02-20T17:01:01.971Z,101883.00
2024-02-20T17:03:28.488Z,101893.00
2024-02-20T17:05:55.284Z,101891.00
2024-02-20T17:08:25.504Z,101873.00
2024-02-20T17:10:53.048Z,101885.00
2024-02-20T17:13:19.861Z,101892.00
2024-02-20T17:15:46.528Z,101897.00
2024-02-20T17:25:50.436Z,101890.00
2024-02-20T17:28:16.953Z,101890.00
2024-02-20T17:30:44.673Z,101886.00
2024-02-20T17:33:12.463Z,101890.00
2024-02-20T17:35:39.192Z,101885.00
2024-02-20T17:38:08.589Z,101886.00
2024-02-20T17:40:35.655Z,101889.00
2024-02-20T17:43:02.647Z,101896.00
2024-02-20T17:45:29.976Z,101893.00
2024-02-20T17:47:56.615Z,101890.00
2024-02-20T17:50:29.822Z,101882.00
2024-02-20T17:52:56.755Z,101886.00
2024-02-20T17:55:27.230Z,101892.00
2024-02-20T17:57:54.049Z,101887.00
2024-02-20T18:00:20.840Z,101876.00
2024-02-20T18:02:47.457Z,101871.00
2024-02-20T18:05:14.533Z,101863.00
2024-02-20T18:07:41.276Z,101877.00
2024-02-20T18:10:08.397Z,101865.00
2024-02-20T18:12:35.653Z,101875.00
2024-02-20T18:15:04.309Z,101870.00
2024-02-20T18:17:32.584Z,101864.00
2024-02-20T18:19:59.377Z,101870.00
2024-02-20T18:22:26.098Z,101864.00
2024-02-20T18:24:53.038Z,101863.00
2024-02-20T18:27:19.710Z,101872.00
2024-02-20T18:29:46.245Z,101870.00
2024-02-20T18:32:12.969Z,101859.00
2024-02-20T18:34:40.789Z,101869.00
2024-02-20T18:37:12.558Z,101865.00
2024-02-20T18:39:39.161Z,101855.00
2024-02-20T18:42:05.946Z,101861.00
2024-02-20T18:44:33.654Z,101864.00
2024-02-20T18:47:00.795Z,101854.00
2024-02-20T18:49:27.483Z,101854.00
2024-02-20T18:51:54.352Z,101859.00
2024-02-20T18:54:21.328Z,101854.00
2024-02-20T18:56:47.872Z,101853.00
2024-02-20T18:59:20.924Z,101854.00
2024-02-20T19:01:50.103Z,101853.00
2024-02-20T19:04:17.254Z,101851.00
2024-02-20T19:06:44.155Z,101864.00
2024-02-20T19:09:13.030Z,101852.00
2024-02-20T19:11:46.002Z,101857.00
2024-02-20T19:14:15.424Z,101850.00
2024-02-20T19:16:42.985Z,101846.00
2024-02-20T19:19:09.650Z,101851.00
2024-02-20T19:21:39.660Z,101842.00
2024-02-20T19:24:06.834Z,101845.00
2024-02-20T19:26:36.272Z,101853.00
2024-02-20T19:29:05.487Z,101842.00
2024-02-20T19:31:34.663Z,101848.00
2024-02-20T19:34:03.156Z,101850.00
2024-02-20T19:36:29.802Z,101831.00
2024-02-20T19:38:56.611Z,101828.00
2024-02-20T19:41:25.929Z,101829.00
2024-02-20T19:43:53.590Z,101839.00
2024-02-20T19:46:20.586Z,101831.00
2024-02-20T19:48:48.219Z,101836.00
2024-02-20T19:51:15.061Z,101842.00
2024-02-20T19:53:41.533Z,101834.00
2024-02-20T19:58:55.875Z,101829.00
2024-02-20T20:01:23.096Z,101840.00
2024-02-20T20:03:53.141Z,101833.00
2024-02-20T20:06:23.831Z,101836.00
2024-02-20T20:08:51.823Z,101840.00
2024-02-20T20:11:18.572Z,101833.00
2024-02-20T20:13:45.567Z,101833.00
2024-02-20T20:16:21.145Z,101824.00
2024-02-20T20:18:50.881Z,101827.00
2024-02-20T20:21:19.320Z,101824.00
2024-02-20T20:23:46.369Z,101820.00
2024-02-20T20:26:13.006Z,101820.00
2024-02-20T20:28:39.586Z,101823.00
2024-02-20T20:31:06.138Z,101812.00
2024-02-20T20:33:33.182Z,101822.00
2024-02-20T20:35:59.744Z,101820.00
2024-02-20T20:38:26.642Z,101816.00
2024-02-20T20:40:53.361Z,101820.00
2024-02-20T20:43:24.905Z,101808.00
2024-02-20T20:45:52.664Z,101810.00
2024-02-20T20:48:20.298Z,101808.00
2024-02-20T20:50:47.999Z,101798.00
2024-02-20T20:53:14.936Z,101817.00
2024-02-20T20:55:41.633Z,101812.00
2024-02-20T20:58:09.372Z,101816.00
2024-02-20T21:00:41.517Z,101818.00
2024-02-20T21:03:09.455Z,101793.00
2024-02-20T21:05:39.448Z,101809.00
2024-02-20T21:08:06.641Z,101796.00
2024-02-20T21:10:38.028Z,101799.00
2024-02-20T21:13:05.463Z,101791.00
2024-02-20T21:15:32.325Z,101797.00
2024-02-20T21:17:59.865Z,101785.00
2024-02-20T21:20:29.153Z,101796.00
2024-02-20T21:22:56.115Z,101791.00
2024-02-20T21:25:22.842Z,101786.00
2024-02-20T21:27:49.556Z,101779.00
2024-02-20T21:30:16.148Z,101781.00
2024-02-20T21:32:43.078Z,101767.00
2024-02-20T21:35:11.238Z,101777.00
2024-02-20T21:37:38.301Z,101775.00
2024-02-20T21:40:10.207Z,101780.00
2024-02-20T21:42:37.030Z,101767.00
2024-02-20T21:45:05.351Z,101761.00
2024-02-20T21:47:31.925Z,101765.00
2024-02-20T21:49:58.509Z,101764.00
2024-02-20T21:52:25.712Z,101769.00
2024-02-20T21:54:52.515Z,101760.00
2024-02-20T21:57:21.008Z,101765.00
2024-02-20T21:59:47.617Z,101758.00
2024-02-20T22:02:14.576Z,101760.00
2024-02-20T22:04:41.438Z,101750.00
2024-02-20T22:07:08.375Z,101757.00
2024-02-20T22:09:35.146Z,101750.00
2024-02-20T22:12:01.748Z,101743.00
2024-02-20T22:14:28.441Z,101746.00
2024-02-20T22:16:55.282Z,101735.00
2024-02-20T22:19:22.576Z,101732.00
2024-02-20T22:21:49.284Z,101732.00
2024-02-20T22:24:15.800Z,101729.00
2024-02-20T22:26:42.384Z,101729.00
2024-02-20T22:29:08.963Z,101741.00
2024-02-20T22:31:37.927Z,101727.00
2024-02-20T22:34:04.622Z,101727.00
2024-02-20T22:36:36.670Z,101731.00
2024-02-20T22:39:03.724Z,101720.00
2024-02-20T22:41:30.372Z,101727.00
2024-02-20T22:43:57.186Z,101727.00
2024-02-20T22:46:24.158Z,101725.00
2024-02-20T22:48:51.081Z,101712.00
2024-02-20T22:51:17.580Z,101722.00
2024-02-20T22:53:44.137Z,101725.00
2024-02-20T22:56:10.667Z,101725.00
2024-02-20T22:58:41.340Z,101718.00
2024-02-20T23:01:08.035Z,101720.00
2024-02-20T23:03:34.647Z,101706.00
2024-02-20T23:06:01.354Z,101714.00
2024-02-20T23:08:27.893Z,101713.00
2024-02-20T23:10:54.500Z,101706.00
2024-02-20T23:13:21.171Z,101701.00
2024-02-20T23:15:47.712Z,101692.00
2024-02-20T23:18:14.272Z,101694.00
2024-02-20T23:20:40.847Z,101691.00
2024-02-20T23:23:07.391Z,101684.00
2024-02-20T23:25:33.970Z,101673.00
2024-02-20T23:28:00.539Z,101682.00
2024-02-20T23:30:27.138Z,101668.00
2024-02-20T23:32:53.694Z,101667.00
2024-02-20T23:35:20.490Z,101668.00
2024-02-20T23:37:49.403Z,101671.00
2024-02-20T23:40:16.660Z,101668.00
2024-02-20T23:42:44.052Z,101664.00
2024-02-20T23:45:11.639Z,101661.00
2024-02-20T23:47:38.990Z,101663.00
2024-02-20T23:50:06.223Z,101654.00
2024-02-20T23:52:33.191Z,101653.00
2024-02-20T23:54:59.842Z,101643.00
2024-02-20T23:57:26.866Z,101640.00
2024-02-20T23:59:55.073Z,101651.00
